sensor_id;sensor_type;location;lat;lon;timestamp;pressure;altitude;pressure_sealevel;temperature;humidity
41334;BME280;27078;46.428;6.256;2023-05-01T00:00:21;96406.97;;;11.53;100.00
41334;BME280;27078;46.428;6.256;2023-05-01T00:02:46;96406.19;;;11.43;100.00
41334;BME280;27078;46.428;6.256;2023-05-01T00:05:12;96407.84;;;11.34;100.00
41334;BME280;27078;46.428;6.256;2023-05-01T00:07:37;96399.25;;;11.23;100.00
41334;BME280;27078;46.428;6.256;2023-05-01T00:10:03;96397.03;;;11.28;100.00
41334;BME280;27078;46.428;6.256;2023-05-01T00:12:28;96401.09;;;11.22;100.00
41334;BME280;27078;46.428;6.256;2023-05-01T00:14:53;96396.47;;;11.05;100.00
41334;BME280;27078;46.428;6.256;2023-05-01T00:17:19;96392.06;;;10.95;100.00
41334;BME280;27078;46.428;6.256;2023-05-01T00:19:50;96387.31;;;10.99;100.00
41334;BME280;27078;46.428;6.256;2023-05-01T00:22:15;96392.31;;;11.02;100.00
41334;BME280;27078;46.428;6.256;2023-05-01T00:24:41;96380.91;;;10.92;100.00
41334;BME280;27078;46.428;6.256;2023-05-01T00:27:06;96381.75;;;10.83;100.00
41334;BME280;27078;46.428;6.256;2023-05-01T00:29:32;96373.84;;;10.83;100.00
41334;BME280;27078;46.428;6.256;2023-05-01T00:31:57;96370.06;;;10.85;100.00
41334;BME280;27078;46.428;6.256;2023-05-01T00:34:23;96367.72;;;10.72;100.00
41334;BME280;27078;46.428;6.256;2023-05-01T00:36:49;96364.81;;;10.66;100.00
41334;BME280;27078;46.428;6.256;2023-05-01T00:39:14;96362.31;;;10.54;100.00
41334;BME280;27078;46.428;6.256;2023-05-01T00:41:40;96361.16;;;10.47;100.00
41334;BME280;27078;46.428;6.256;2023-05-01T00:44:05;96352.84;;;10.42;100.00
41334;BME280;27078;46.428;6.256;2023-05-01T00:46:32;96363.66;;;10.29;100.00
41334;BME280;27078;46.428;6.256;2023-05-01T00:48:58;96363.13;;;10.45;100.00
41334;BME280;27078;46.428;6.256;2023-05-01T00:51:25;96358.13;;;10.42;100.00
41334;BME280;27078;46.428;6.256;2023-05-01T00:53:52;96356.59;;;10.39;100.00
41334;BME280;27078;46.428;6.256;2023-05-01T00:56:18;96347.81;;;10.39;100.00
41334;BME280;27078;46.428;6.256;2023-05-01T00:58:46;96353.09;;;10.39;100.00
41334;BME280;27078;46.428;6.256;2023-05-01T01:01:13;96345.41;;;10.26;100.00
41334;BME280;27078;46.428;6.256;2023-05-01T01:03:40;96349.84;;;10.26;100.00
41334;BME280;27078;46.428;6.256;2023-05-01T01:09:17;96337.00;;;10.42;100.00
41334;BME280;27078;46.428;6.256;2023-05-01T01:14:24;96336.75;;;10.05;100.00
41334;BME280;27078;46.428;6.256;2023-05-01T01:17:03;96339.94;;;9.89;100.00
41334;BME280;27078;46.428;6.256;2023-05-01T01:19:47;96344.88;;;9.72;100.00
41334;BME280;27078;46.428;6.256;2023-05-01T01:22:22;96339.69;;;9.61;100.00
41334;BME280;27078;46.428;6.256;2023-05-01T01:28:23;96330.34;;;9.88;100.00
41334;BME280;27078;46.428;6.256;2023-05-01T01:36:35;96330.25;;;9.99;100.00
41334;BME280;27078;46.428;6.256;2023-05-01T01:39:39;96328.16;;;10.22;100.00
41334;BME280;27078;46.428;6.256;2023-05-01T01:42:08;96323.59;;;10.14;100.00
41334;BME280;27078;46.428;6.256;2023-05-01T01:44:42;96326.09;;;10.16;100.00
41334;BME280;27078;46.428;6.256;2023-05-01T01:47:12;96329.56;;;10.16;100.00
41334;BME280;27078;46.428;6.256;2023-05-01T01:49:42;96318.44;;;10.13;100.00
41334;BME280;27078;46.428;6.256;2023-05-01T01:52:11;96325.78;;;9.99;100.00
41334;BME280;27078;46.428;6.256;2023-05-01T01:54:42;96332.16;;;9.87;100.00
41334;BME280;27078;46.428;6.256;2023-05-01T01:57:10;96329.63;;;9.86;100.00
41334;BME280;27078;46.428;6.256;2023-05-01T01:59:39;96330.84;;;9.72;100.00
41334;BME280;27078;46.428;6.256;2023-05-01T02:02:06;96335.69;;;9.67;100.00
41334;BME280;27078;46.428;6.256;2023-05-01T02:04:33;96337.88;;;9.62;100.00
41334;BME280;27078;46.428;6.256;2023-05-01T02:07:00;96336.47;;;9.57;100.00
41334;BME280;27078;46.428;6.256;2023-05-01T02:09:28;96341.75;;;9.57;100.00
41334;BME280;27078;46.428;6.256;2023-05-01T02:11:54;96335.66;;;9.57;100.00
41334;BME280;27078;46.428;6.256;2023-05-01T02:14:20;96331.50;;;9.64;100.00
41334;BME280;27078;46.428;6.256;2023-05-01T02:16:50;96343.16;;;9.62;100.00
41334;BME280;27078;46.428;6.256;2023-05-01T02:19:16;96336.19;;;9.61;100.00
41334;BME280;27078;46.428;6.256;2023-05-01T02:21:42;96330.22;;;9.58;100.00
41334;BME280;27078;46.428;6.256;2023-05-01T02:24:09;96329.84;;;9.63;100.00
41334;BME280;27078;46.428;6.256;2023-05-01T02:26:40;96318.91;;;9.68;100.00
41334;BME280;27078;46.428;6.256;2023-05-01T02:29:07;96316.69;;;9.73;100.00
41334;BME280;27078;46.428;6.256;2023-05-01T02:31:38;96315.19;;;9.80;100.00
41334;BME280;27078;46.428;6.256;2023-05-01T02:34:04;96317.78;;;9.70;100.00
41334;BME280;27078;46.428;6.256;2023-05-01T02:36:29;96314.03;;;9.63;100.00
41334;BME280;27078;46.428;6.256;2023-05-01T02:38:58;96320.91;;;9.54;100.00
41334;BME280;27078;46.428;6.256;2023-05-01T02:41:24;96313.16;;;9.53;100.00
41334;BME280;27078;46.428;6.256;2023-05-01T02:44:01;96312.47;;;9.61;100.00
41334;BME280;27078;46.428;6.256;2023-05-01T02:46:30;96318.16;;;9.56;100.00
41334;BME280;27078;46.428;6.256;2023-05-01T02:48:59;96317.84;;;9.49;100.00
41334;BME280;27078;46.428;6.256;2023-05-01T02:51:26;96304.84;;;9.57;100.00
41334;BME280;27078;46.428;6.256;2023-05-01T02:53:53;96313.28;;;9.51;100.00
41334;BME280;27078;46.428;6.256;2023-05-01T02:56:19;96314.50;;;9.47;100.00
41334;BME280;27078;46.428;6.256;2023-05-01T02:58:46;96316.75;;;9.52;100.00
41334;BME280;27078;46.428;6.256;2023-05-01T03:01:11;96310.22;;;9.46;100.00
41334;BME280;27078;46.428;6.256;2023-05-01T03:03:37;96315.34;;;9.48;100.00
41334;BME280;27078;46.428;6.256;2023-05-01T03:06:02;96314.63;;;9.46;100.00
41334;BME280;27078;46.428;6.256;2023-05-01T03:08:27;96310.94;;;9.48;100.00
41334;BME280;27078;46.428;6.256;2023-05-01T03:10:53;96308.66;;;9.44;100.00
41334;BME280;27078;46.428;6.256;2023-05-01T03:13:18;96303.97;;;9.47;100.00
41334;BME280;27078;46.428;6.256;2023-05-01T03:15:44;96297.34;;;9.53;100.00
41334;BME280;27078;46.428;6.256;2023-05-01T03:18:09;96296.28;;;9.65;100.00
41334;BME280;27078;46.428;6.256;2023-05-01T03:20:35;96301.81;;;9.62;100.00
41334;BME280;27078;46.428;6.256;2023-05-01T03:23:00;96299.81;;;9.54;100.00
41334;BME280;27078;46.428;6.256;2023-05-01T03:25:25;96290.16;;;9.65;100.00
41334;BME280;27078;46.428;6.256;2023-05-01T03:27:51;96290.84;;;9.67;100.00
41334;BME280;27078;46.428;6.256;2023-05-01T03:30:17;96288.78;;;9.70;100.00
41334;BME280;27078;46.428;6.256;2023-05-01T03:32:42;96288.81;;;9.80;100.00
41334;BME280;27078;46.428;6.256;2023-05-01T03:35:08;96283.25;;;9.83;100.00
41334;BME280;27078;46.428;6.256;2023-05-01T03:37:34;96293.00;;;9.92;100.00
41334;BME280;27078;46.428;6.256;2023-05-01T03:39:59;96286.06;;;9.91;100.00
41334;BME280;27078;46.428;6.256;2023-05-01T03:42:25;96287.31;;;9.87;100.00
41334;BME280;27078;46.428;6.256;2023-05-01T03:44:50;96275.91;;;9.96;100.00
41334;BME280;27078;46.428;6.256;2023-05-01T03:47:16;96285.22;;;10.01;100.00
41334;BME280;27078;46.428;6.256;2023-05-01T03:49:42;96278.59;;;10.06;100.00
41334;BME280;27078;46.428;6.256;2023-05-01T03:52:08;96284.94;;;9.94;100.00
41334;BME280;27078;46.428;6.256;2023-05-01T03:54:33;96287.00;;;9.90;100.00
41334;BME280;27078;46.428;6.256;2023-05-01T03:56:59;96281.31;;;9.85;100.00
41334;BME280;27078;46.428;6.256;2023-05-01T03:59:25;96285.31;;;9.79;100.00
41334;BME280;27078;46.428;6.256;2023-05-01T04:01:51;96282.94;;;9.67;100.00
41334;BME280;27078;46.428;6.256;2023-05-01T04:04:17;96284.03;;;9.64;100.00
41334;BME280;27078;46.428;6.256;2023-05-01T04:06:42;96289.28;;;9.54;100.00
41334;BME280;27078;46.428;6.256;2023-05-01T04:09:08;96287.38;;;9.66;100.00
41334;BME280;27078;46.428;6.256;2023-05-01T04:11:33;96283.22;;;9.64;100.00
41334;BME280;27078;46.428;6.256;2023-05-01T04:13:59;96284.88;;;9.65;100.00
41334;BME280;27078;46.428;6.256;2023-05-01T04:16:24;96281.53;;;9.63;100.00
41334;BME280;27078;46.428;6.256;2023-05-01T04:18:49;96284.88;;;9.65;100.00
41334;BME280;27078;46.428;6.256;2023-05-01T04:21:15;96280.47;;;9.75;100.00
41334;BME280;27078;46.428;6.256;2023-05-01T04:23:42;96286.03;;;9.82;100.00
41334;BME280;27078;46.428;6.256;2023-05-01T04:26:08;96289.25;;;9.85;100.00
41334;BME280;27078;46.428;6.256;2023-05-01T04:28:33;96288.81;;;9.80;100.00
41334;BME280;27078;46.428;6.256;2023-05-01T04:30:58;96294.78;;;9.82;100.00
41334;BME280;27078;46.428;6.256;2023-05-01T04:33:24;96301.84;;;9.82;100.00
41334;BME280;27078;46.428;6.256;2023-05-01T04:35:49;96306.06;;;9.84;100.00
41334;BME280;27078;46.428;6.256;2023-05-01T04:38:15;96304.94;;;9.87;100.00
41334;BME280;27078;46.428;6.256;2023-05-01T04:40:40;96304.16;;;10.06;100.00
41334;BME280;27078;46.428;6.256;2023-05-01T04:43:05;96314.16;;;10.12;100.00
41334;BME280;27078;46.428;6.256;2023-05-01T04:45:31;96310.81;;;10.10;100.00
41334;BME280;27078;46.428;6.256;2023-05-01T04:47:56;96316.09;;;10.10;100.00
41334;BME280;27078;46.428;6.256;2023-05-01T04:50:22;96313.16;;;10.13;100.00
41334;BME280;27078;46.428;6.256;2023-05-01T04:52:47;96314.97;;;10.12;100.00
41334;BME280;27078;46.428;6.256;2023-05-01T04:55:12;96317.50;;;10.14;100.00
41334;BME280;27078;46.428;6.256;2023-05-01T04:57:38;96329.69;;;10.15;100.00
41334;BME280;27078;46.428;6.256;2023-05-01T05:00:03;96324.44;;;10.15;100.00
41334;BME280;27078;46.428;6.256;2023-05-01T05:02:29;96321.50;;;10.18;100.00
41334;BME280;27078;46.428;6.256;2023-05-01T05:04:55;96324.72;;;10.22;100.00
41334;BME280;27078;46.428;6.256;2023-05-01T05:07:21;96330.56;;;10.25;100.00
41334;BME280;27078;46.428;6.256;2023-05-01T05:09:46;96329.56;;;10.26;100.00
41334;BME280;27078;46.428;6.256;2023-05-01T05:12:12;96333.19;;;10.25;100.00
41334;BME280;27078;46.428;6.256;2023-05-01T05:14:39;96330.28;;;10.28;100.00
41334;BME280;27078;46.428;6.256;2023-05-01T05:17:04;96340.13;;;10.26;100.00
41334;BME280;27078;46.428;6.256;2023-05-01T05:19:30;96332.91;;;10.28;100.00
41334;BME280;27078;46.428;6.256;2023-05-01T05:21:55;96336.41;;;10.29;100.00
41334;BME280;27078;46.428;6.256;2023-05-01T05:24:21;96324.75;;;10.31;100.00
41334;BME280;27078;46.428;6.256;2023-05-01T05:26:46;96324.75;;;10.31;100.00
41334;BME280;27078;46.428;6.256;2023-05-01T05:29:12;96327.81;;;10.36;100.00
41334;BME280;27078;46.428;6.256;2023-05-01T05:31:37;96323.94;;;10.41;100.00
41334;BME280;27078;46.428;6.256;2023-05-01T05:34:03;96325.63;;;10.42;100.00
41334;BME280;27078;46.428;6.256;2023-05-01T05:36:28;96329.22;;;10.41;100.00
41334;BME280;27078;46.428;6.256;2023-05-01T05:38:54;96325.88;;;10.38;100.00
41334;BME280;27078;46.428;6.256;2023-05-01T05:41:19;96327.41;;;10.41;100.00
41334;BME280;27078;46.428;6.256;2023-05-01T05:43:45;96321.84;;;10.44;100.00
41334;BME280;27078;46.428;6.256;2023-05-01T05:46:11;96327.69;;;10.48;100.00
41334;BME280;27078;46.428;6.256;2023-05-01T05:48:36;96331.16;;;10.48;100.00
41334;BME280;27078;46.428;6.256;2023-05-01T05:51:02;96329.06;;;10.52;100.00
41334;BME280;27078;46.428;6.256;2023-05-01T05:53:27;96335.03;;;10.54;100.00
41334;BME280;27078;46.428;6.256;2023-05-01T05:55:53;96332.00;;;10.58;100.00
41334;BME280;27078;46.428;6.256;2023-05-01T05:58:18;96337.13;;;10.60;100.00
41334;BME280;27078;46.428;6.256;2023-05-01T06:00:48;96337.69;;;10.64;100.00
41334;BME280;27078;46.428;6.256;2023-05-01T06:03:14;96333.66;;;10.69;100.00
41334;BME280;27078;46.428;6.256;2023-05-01T06:05:40;96338.66;;;10.72;100.00
41334;BME280;27078;46.428;6.256;2023-05-01T06:08:06;96338.41;;;10.75;100.00
41334;BME280;27078;46.428;6.256;2023-05-01T06:10:31;96332.81;;;10.78;100.00
41334;BME280;27078;46.428;6.256;2023-05-01T06:12:57;96351.31;;;10.78;100.00
41334;BME280;27078;46.428;6.256;2023-05-01T06:15:22;96345.06;;;10.79;100.00
41334;BME280;27078;46.428;6.256;2023-05-01T06:17:49;96349.38;;;10.80;100.00
41334;BME280;27078;46.428;6.256;2023-05-01T06:20:14;96350.91;;;10.73;100.00
41334;BME280;27078;46.428;6.256;2023-05-01T06:22:40;96359.09;;;10.70;100.00
41334;BME280;27078;46.428;6.256;2023-05-01T06:25:06;96362.84;;;10.68;100.00
41334;BME280;27078;46.428;6.256;2023-05-01T06:27:32;96366.75;;;10.73;100.00
41334;BME280;27078;46.428;6.256;2023-05-01T06:29:57;96368.72;;;10.71;100.00
41334;BME280;27078;46.428;6.256;2023-05-01T06:32:22;96366.59;;;10.75;100.00
41334;BME280;27078;46.428;6.256;2023-05-01T06:34:48;96369.78;;;10.69;100.00
41334;BME280;27078;46.428;6.256;2023-05-01T06:37:13;96365.91;;;10.63;100.00
41334;BME280;27078;46.428;6.256;2023-05-01T06:39:38;96359.25;;;10.59;100.00
41334;BME280;27078;46.428;6.256;2023-05-01T06:42:04;96358.13;;;10.62;100.00
41334;BME280;27078;46.428;6.256;2023-05-01T06:44:29;96348.13;;;10.55;100.00
41334;BME280;27078;46.428;6.256;2023-05-01T06:46:55;96350.88;;;10.54;100.00
41334;BME280;27078;46.428;6.256;2023-05-01T06:49:21;96350.63;;;10.57;100.00
41334;BME280;27078;46.428;6.256;2023-05-01T06:51:46;96348.25;;;10.54;100.00
41334;BME280;27078;46.428;6.256;2023-05-01T06:54:12;96350.63;;;10.57;100.00
41334;BME280;27078;46.428;6.256;2023-05-01T06:56:37;96344.50;;;10.56;100.00
41334;BME280;27078;46.428;6.256;2023-05-01T06:59:03;96344.78;;;10.63;100.00
41334;BME280;27078;46.428;6.256;2023-05-01T07:01:30;96346.75;;;10.61;100.00
41334;BME280;27078;46.428;6.256;2023-05-01T07:03:55;96361.75;;;10.70;100.00
41334;BME280;27078;46.428;6.256;2023-05-01T07:06:20;96360.34;;;10.76;100.00
41334;BME280;27078;46.428;6.256;2023-05-01T07:08:46;96362.28;;;10.84;100.00
41334;BME280;27078;46.428;6.256;2023-05-01T07:11:11;96368.69;;;10.91;100.00
41334;BME280;27078;46.428;6.256;2023-05-01T07:13:37;96374.81;;;11.01;100.00
41334;BME280;27078;46.428;6.256;2023-05-01T07:16:02;96371.31;;;11.10;100.00
41334;BME280;27078;46.428;6.256;2023-05-01T07:18:28;96372.13;;;11.20;100.00
41334;BME280;27078;46.428;6.256;2023-05-01T07:20:53;96378.13;;;11.23;100.00
41334;BME280;27078;46.428;6.256;2023-05-01T07:23:19;96373.09;;;11.29;100.00
41334;BME280;27078;46.428;6.256;2023-05-01T07:25:44;96375.03;;;11.37;100.00
41334;BME280;27078;46.428;6.256;2023-05-01T07:28:10;96370.00;;;11.44;100.00
41334;BME280;27078;46.428;6.256;2023-05-01T07:30:36;96378.50;;;11.47;100.00
41334;BME280;27078;46.428;6.256;2023-05-01T07:33:02;96376.63;;;11.57;100.00
41334;BME280;27078;46.428;6.256;2023-05-01T07:35:29;96381.06;;;11.67;100.00
41334;BME280;27078;46.428;6.256;2023-05-01T07:37:55;96377.84;;;11.73;100.00
41334;BME280;27078;46.428;6.256;2023-05-01T07:40:20;96375.84;;;11.85;100.00
41334;BME280;27078;46.428;6.256;2023-05-01T07:42:46;96386.28;;;11.96;100.00
41334;BME280;27078;46.428;6.256;2023-05-01T07:45:11;96379.75;;;12.18;100.00
41334;BME280;27078;46.428;6.256;2023-05-01T07:47:36;96388.28;;;12.39;100.00
41334;BME280;27078;46.428;6.256;2023-05-01T07:50:02;96387.03;;;12.61;100.00
41334;BME280;27078;46.428;6.256;2023-05-01T07:52:28;96384.81;;;12.93;100.00
41334;BME280;27078;46.428;6.256;2023-05-01T07:54:54;96389.03;;;13.21;100.00
41334;BME280;27078;46.428;6.256;2023-05-01T07:57:19;96404.53;;;13.52;100.00
41334;BME280;27078;46.428;6.256;2023-05-01T07:59:47;96407.28;;;13.69;100.00
41334;BME280;27078;46.428;6.256;2023-05-01T08:02:13;96404.50;;;13.70;100.00
41334;BME280;27078;46.428;6.256;2023-05-01T08:04:40;96413.91;;;13.64;100.00
41334;BME280;27078;46.428;6.256;2023-05-01T08:07:06;96416.19;;;13.59;100.00
41334;BME280;27078;46.428;6.256;2023-05-01T08:09:32;96420.22;;;13.63;100.00
41334;BME280;27078;46.428;6.256;2023-05-01T08:11:57;96423.84;;;13.62;100.00
41334;BME280;27078;46.428;6.256;2023-05-01T08:14:22;96423.53;;;13.66;100.00
41334;BME280;27078;46.428;6.256;2023-05-01T08:16:48;96434.78;;;13.23;100.00
41334;BME280;27078;46.428;6.256;2023-05-01T08:19:18;96436.94;;;13.02;100.00
41334;BME280;27078;46.428;6.256;2023-05-01T08:21:43;96436.59;;;12.69;100.00
41334;BME280;27078;46.428;6.256;2023-05-01T08:24:09;96436.88;;;12.48;100.00
41334;BME280;27078;46.428;6.256;2023-05-01T08:26:35;96438.22;;;12.34;100.00
41334;BME280;27078;46.428;6.256;2023-05-01T08:29:00;96439.47;;;12.30;100.00
41334;BME280;27078;46.428;6.256;2023-05-01T08:31:25;96441.03;;;12.23;100.00
41334;BME280;27078;46.428;6.256;2023-05-01T08:33:51;96435.69;;;12.33;100.00
41334;BME280;27078;46.428;6.256;2023-05-01T08:36:16;96439.28;;;12.41;100.00
41334;BME280;27078;46.428;6.256;2023-05-01T08:38:41;96434.38;;;12.47;100.00
41334;BME280;27078;46.428;6.256;2023-05-01T08:41:07;96442.13;;;12.58;100.00
41334;BME280;27078;46.428;6.256;2023-05-01T08:43:33;96445.69;;;12.67;100.00
41334;BME280;27078;46.428;6.256;2023-05-01T08:45:58;96445.22;;;12.71;100.00
41334;BME280;27078;46.428;6.256;2023-05-01T08:48:26;96443.81;;;12.77;100.00
41334;BME280;27078;46.428;6.256;2023-05-01T08:50:54;96439.03;;;12.98;100.00
41334;BME280;27078;46.428;6.256;2023-05-01T08:53:21;96444.03;;;13.19;100.00
41334;BME280;27078;46.428;6.256;2023-05-01T08:55:47;96438.41;;;13.58;100.00
41334;BME280;27078;46.428;6.256;2023-05-01T08:58:16;96439.09;;;13.87;100.00
41334;BME280;27078;46.428;6.256;2023-05-01T09:00:43;96437.59;;;14.18;100.00
41334;BME280;27078;46.428;6.256;2023-05-01T09:03:11;96438.63;;;14.60;100.00
41334;BME280;27078;46.428;6.256;2023-05-01T09:05:38;96439.34;;;14.86;100.00
41334;BME280;27078;46.428;6.256;2023-05-01T09:08:03;96443.38;;;14.99;100.00
41334;BME280;27078;46.428;6.256;2023-05-01T09:10:29;96444.88;;;15.10;100.00
41334;BME280;27078;46.428;6.256;2023-05-01T09:12:56;96440.72;;;15.07;100.00
41334;BME280;27078;46.428;6.256;2023-05-01T09:15:24;96448.81;;;14.89;100.00
41334;BME280;27078;46.428;6.256;2023-05-01T09:17:51;96450.94;;;14.77;100.00
41334;BME280;27078;46.428;6.256;2023-05-01T09:20:17;96444.25;;;14.57;100.00
41334;BME280;27078;46.428;6.256;2023-05-01T09:22:43;96447.50;;;14.42;100.00
41334;BME280;27078;46.428;6.256;2023-05-01T09:25:09;96450.19;;;14.51;100.00
41334;BME280;27078;46.428;6.256;2023-05-01T09:27:37;96444.00;;;14.84;100.00
41334;BME280;27078;46.428;6.256;2023-05-01T09:30:04;96447.56;;;15.18;100.00
41334;BME280;27078;46.428;6.256;2023-05-01T09:32:31;96444.06;;;15.34;100.00
41334;BME280;27078;46.428;6.256;2023-05-01T09:35:13;96442.41;;;15.41;100.00
41334;BME280;27078;46.428;6.256;2023-05-01T09:37:39;96446.22;;;15.71;100.00
41334;BME280;27078;46.428;6.256;2023-05-01T09:40:09;96446.31;;;16.11;100.00
41334;BME280;27078;46.428;6.256;2023-05-01T09:45:05;96442.94;;;16.73;100.00
41334;BME280;27078;46.428;6.256;2023-05-01T09:47:31;96444.13;;;17.47;100.00
41334;BME280;27078;46.428;6.256;2023-05-01T09:49:58;96444.81;;;18.17;100.00
41334;BME280;27078;46.428;6.256;2023-05-01T09:52:28;96444.78;;;18.62;100.00
41334;BME280;27078;46.428;6.256;2023-05-01T09:55:15;96453.13;;;18.52;100.00
41334;BME280;27078;46.428;6.256;2023-05-01T09:57:42;96456.34;;;18.18;100.00
41334;BME280;27078;46.428;6.256;2023-05-01T10:00:10;96456.28;;;17.50;100.00
41334;BME280;27078;46.428;6.256;2023-05-01T10:02:37;96460.56;;;16.82;100.00
41334;BME280;27078;46.428;6.256;2023-05-01T10:05:07;96469.91;;;16.38;100.00
41334;BME280;27078;46.428;6.256;2023-05-01T10:07:33;96468.81;;;16.08;100.00
41334;BME280;27078;46.428;6.256;2023-05-01T10:12:40;96470.63;;;16.24;100.00
41334;BME280;27078;46.428;6.256;2023-05-01T10:15:06;96459.69;;;16.50;100.00
41334;BME280;27078;46.428;6.256;2023-05-01T10:17:33;96471.44;;;16.72;100.00
41334;BME280;27078;46.428;6.256;2023-05-01T10:19:59;96464.50;;;16.94;100.00
41334;BME280;27078;46.428;6.256;2023-05-01T10:22:24;96471.31;;;16.97;100.00
41334;BME280;27078;46.428;6.256;2023-05-01T10:24:50;96477.59;;;16.73;100.00
41334;BME280;27078;46.428;6.256;2023-05-01T10:27:17;96471.53;;;16.47;100.00
41334;BME280;27078;46.428;6.256;2023-05-01T10:29:45;96466.19;;;16.47;100.00
41334;BME280;27078;46.428;6.256;2023-05-01T10:32:13;96464.94;;;16.66;100.00
41334;BME280;27078;46.428;6.256;2023-05-01T10:34:42;96459.34;;;16.93;100.00
41334;BME280;27078;46.428;6.256;2023-05-01T10:37:25;96460.44;;;17.29;100.00
41334;BME280;27078;46.428;6.256;2023-05-01T10:39:53;96461.66;;;17.65;100.00
41334;BME280;27078;46.428;6.256;2023-05-01T10:42:19;96466.28;;;17.71;100.00
41334;BME280;27078;46.428;6.256;2023-05-01T10:44:44;96473.38;;;17.41;100.00
41334;BME280;27078;46.428;6.256;2023-05-01T10:55:37;96467.84;;;15.27;100.00
41334;BME280;27078;46.428;6.256;2023-05-01T10:58:03;96470.00;;;15.40;100.00
41334;BME280;27078;46.428;6.256;2023-05-01T11:00:30;96472.47;;;15.17;100.00
41334;BME280;27078;46.428;6.256;2023-05-01T11:08:34;96481.13;;;15.19;100.00
41334;BME280;27078;46.428;6.256;2023-05-01T11:14:03;96476.66;;;15.36;100.00
41334;BME280;27078;46.428;6.256;2023-05-01T11:19:07;96481.47;;;15.24;100.00
41334;BME280;27078;46.428;6.256;2023-05-01T11:21:35;96477.97;;;15.23;100.00
41334;BME280;27078;46.428;6.256;2023-05-01T11:24:10;96471.66;;;15.49;100.00
41334;BME280;27078;46.428;6.256;2023-05-01T11:26:39;96476.84;;;15.75;100.00
41334;BME280;27078;46.428;6.256;2023-05-01T11:29:07;96470.00;;;15.81;100.00
41334;BME280;27078;46.428;6.256;2023-05-01T11:31:33;96472.38;;;15.76;100.00
41334;BME280;27078;46.428;6.256;2023-05-01T11:33:59;96471.34;;;15.77;100.00
41334;BME280;27078;46.428;6.256;2023-05-01T11:36:25;96476.84;;;15.75;100.00
41334;BME280;27078;46.428;6.256;2023-05-01T11:38:55;96474.34;;;15.74;100.00
41334;BME280;27078;46.428;6.256;2023-05-01T11:41:22;96475.66;;;15.61;100.00
41334;BME280;27078;46.428;6.256;2023-05-01T11:43:52;96472.34;;;15.59;100.00
41334;BME280;27078;46.428;6.256;2023-05-01T11:48:52;96467.53;;;15.79;100.00
41334;BME280;27078;46.428;6.256;2023-05-01T11:51:18;96466.38;;;15.74;100.00
41334;BME280;27078;46.428;6.256;2023-05-01T11:56:22;96454.72;;;16.47;100.00
41334;BME280;27078;46.428;6.256;2023-05-01T11:58:48;96449.09;;;16.73;100.00
41334;BME280;27078;46.428;6.256;2023-05-01T12:01:13;96452.47;;;16.98;100.00
41334;BME280;27078;46.428;6.256;2023-05-01T12:03:40;96446.56;;;17.11;100.00
41334;BME280;27078;46.428;6.256;2023-05-01T12:06:08;96442.09;;;17.26;100.00
41334;BME280;27078;46.428;6.256;2023-05-01T12:08:33;96436.94;;;17.48;100.00
41334;BME280;27078;46.428;6.256;2023-05-01T12:10:59;96438.88;;;17.54;100.00
41334;BME280;27078;46.428;6.256;2023-05-01T12:13:25;96440.09;;;17.89;100.00
41334;BME280;27078;46.428;6.256;2023-05-01T12:15:52;96439.28;;;18.63;100.00
41334;BME280;27078;46.428;6.256;2023-05-01T12:18:18;96445.72;;;18.39;100.00
41334;BME280;27078;46.428;6.256;2023-05-01T12:20:53;96448.28;;;17.88;100.00
41334;BME280;27078;46.428;6.256;2023-05-01T12:23:35;96455.88;;;17.15;100.00
41334;BME280;27078;46.428;6.256;2023-05-01T12:26:23;96465.81;;;16.59;100.00
41334;BME280;27078;46.428;6.256;2023-05-01T12:29:03;96472.38;;;16.40;100.00
41334;BME280;27078;46.428;6.256;2023-05-01T12:31:30;96466.53;;;16.44;100.00
41334;BME280;27078;46.428;6.256;2023-05-01T12:33:56;96459.78;;;16.65;100.00
41334;BME280;27078;46.428;6.256;2023-05-01T12:36:23;96454.00;;;16.93;100.00
41334;BME280;27078;46.428;6.256;2023-05-01T12:39:05;96451.41;;;17.30;100.00
41334;BME280;27078;46.428;6.256;2023-05-01T12:41:47;96458.81;;;17.89;100.00
41334;BME280;27078;46.428;6.256;2023-05-01T12:47:00;96455.22;;;17.82;100.00
41334;BME280;27078;46.428;6.256;2023-05-01T12:49:27;96463.25;;;17.97;100.00
41334;BME280;27078;46.428;6.256;2023-05-01T12:51:55;96459.34;;;17.85;100.00
41334;BME280;27078;46.428;6.256;2023-05-01T12:54:25;96460.56;;;17.59;100.00
41334;BME280;27078;46.428;6.256;2023-05-01T12:56:51;96450.34;;;17.40;100.00
41334;BME280;27078;46.428;6.256;2023-05-01T13:01:46;96447.75;;;17.32;100.00
41334;BME280;27078;46.428;6.256;2023-05-01T13:04:19;96442.91;;;17.50;100.00
41334;BME280;27078;46.428;6.256;2023-05-01T13:06:45;96444.09;;;18.08;100.00
41334;BME280;27078;46.428;6.256;2023-05-01T13:09:10;96443.72;;;18.26;100.00
41334;BME280;27078;46.428;6.256;2023-05-01T13:11:36;96444.34;;;18.14;100.00
41334;BME280;27078;46.428;6.256;2023-05-01T13:14:06;96441.16;;;18.03;100.00
41334;BME280;27078;46.428;6.256;2023-05-01T13:16:44;96440.56;;;17.93;100.00
41334;BME280;27078;46.428;6.256;2023-05-01T13:19:10;96443.53;;;17.98;100.00
41334;BME280;27078;46.428;6.256;2023-05-01T13:21:45;96434.47;;;18.88;100.00
41334;BME280;27078;46.428;6.256;2023-05-01T13:24:12;96430.69;;;19.69;100.00
41334;BME280;27078;46.428;6.256;2023-05-01T13:26:37;96434.09;;;19.78;100.00
41334;BME280;27078;46.428;6.256;2023-05-01T13:29:03;96436.13;;;19.76;100.00
41334;BME280;27078;46.428;6.256;2023-05-01T13:31:30;96441.00;;;19.22;100.00
41334;BME280;27078;46.428;6.256;2023-05-01T13:33:57;96431.47;;;19.84;100.00
41334;BME280;27078;46.428;6.256;2023-05-01T13:36:23;96434.00;;;19.92;100.00
41334;BME280;27078;46.428;6.256;2023-05-01T13:38:50;96435.78;;;19.64;100.00
41334;BME280;27078;46.428;6.256;2023-05-01T13:41:19;96435.72;;;20.00;100.00